Time;durP1;ratioP1;P1;durP2;ratioP2;P2;SDS_P1;SDS_P2;PMS_P1;PMS_P2;Temp;Humidity;BMP_temperature;BMP_pressure;BME280_temperature;BME280_humidity;BME280_pressure;Samples;Min_cycle;Max_cycle;Signal;HPM_P1;HPM_P2
2023/08/11 00:00:08;;;;;;;0.00;0.00;;;17.30;79.20;;;;;;4975877;28;20050;-71
2023/08/11 00:02:37;;;;;;;0.00;0.00;;;17.30;79.20;;;;;;4992510;28;20045;-71
2023/08/11 00:05:03;;;;;;;0.00;0.00;;;17.30;79.30;;;;;;4975899;28;20058;-71
2023/08/11 00:07:29;;;;;;;0.00;0.00;;;17.30;79.20;;;;;;4974600;28;20066;-71
2023/08/11 00:09:55;;;;;;;0.00;0.00;;;17.20;79.20;;;;;;4975397;28;20133;-71
2023/08/11 00:12:21;;;;;;;0.00;0.00;;;17.10;79.30;;;;;;4992685;28;20073;-71
2023/08/11 00:14:46;;;;;;;0.00;0.00;;;17.10;79.30;;;;;;4992688;28;20066;-71
2023/08/11 00:17:12;;;;;;;0.00;0.00;;;17.10;79.40;;;;;;4991841;28;20113;-71
2023/08/11 00:19:37;;;;;;;0.00;0.00;;;17.10;79.60;;;;;;4975608;28;20129;-71
2023/08/11 00:22:03;;;;;;;0.10;0.10;;;17.10;79.60;;;;;;4992088;28;20109;-71
2023/08/11 00:24:29;;;;;;;0.00;0.00;;;17.00;79.70;;;;;;4992659;28;20054;-71
2023/08/11 00:26:54;;;;;;;0.00;0.00;;;17.00;80.10;;;;;;4992301;28;20420;-71
2023/08/11 00:29:20;;;;;;;0.00;0.00;;;16.90;79.90;;;;;;4975326;28;20635;-71
2023/08/11 00:31:46;;;;;;;0.00;0.00;;;16.90;79.90;;;;;;4974403;28;20447;-71
2023/08/11 00:34:12;;;;;;;0.00;0.00;;;16.80;79.90;;;;;;4974354;28;20137;-71
2023/08/11 00:36:37;;;;;;;0.00;0.00;;;16.80;79.90;;;;;;4974383;28;20125;-71
2023/08/11 00:39:03;;;;;;;0.00;0.00;;;16.90;79.80;;;;;;4974749;28;20133;-71
2023/08/11 00:41:30;;;;;;;0.00;0.00;;;16.80;80.00;;;;;;4991994;28;20089;-71
2023/08/11 00:43:55;;;;;;;0.00;0.00;;;16.70;80.00;;;;;;4974682;28;20113;-71
2023/08/11 00:46:23;;;;;;;0.03;0.03;;;16.70;79.90;;;;;;4992505;28;20043;-71
2023/08/11 00:48:51;;;;;;;0.00;0.00;;;16.70;80.00;;;;;;4991520;28;20050;-72
2023/08/11 00:51:20;;;;;;;0.00;0.00;;;16.60;80.10;;;;;;4974295;28;20122;-71
2023/08/11 00:53:46;;;;;;;0.00;0.00;;;16.60;80.20;;;;;;4992099;28;20411;-71
2023/08/11 00:56:13;;;;;;;0.00;0.00;;;16.60;80.20;;;;;;4991697;28;20038;-71
2023/08/11 00:58:40;;;;;;;0.00;0.00;;;16.60;80.30;;;;;;4983988;28;20125;-70
2023/08/11 01:01:05;;;;;;;0.00;0.00;;;16.60;80.40;;;;;;4970658;28;20069;-71
2023/08/11 01:03:31;;;;;;;0.00;0.00;;;16.60;80.50;;;;;;4990713;28;20570;-71
2023/08/11 01:06:55;;;;;;;0.00;0.00;;;16.60;80.60;;;;;;4991321;28;20039;-72
2023/08/11 01:09:47;;;;;;;0.00;0.00;;;16.60;80.70;;;;;;4878903;29;20045;-71
2023/08/11 01:12:25;;;;;;;0.00;0.00;;;16.50;80.70;;;;;;4897300;29;20048;-71
2023/08/11 01:15:10;;;;;;;0.00;0.00;;;16.50;80.70;;;;;;4936283;28;20065;-71
2023/08/11 01:17:38;;;;;;;0.00;0.00;;;16.50;80.60;;;;;;4988522;28;20046;-71
2023/08/11 01:20:10;;;;;;;0.00;0.00;;;16.50;80.80;;;;;;4991357;28;20058;-71
2023/08/11 01:22:38;;;;;;;0.00;0.00;;;16.40;80.80;;;;;;4991113;28;20061;-71
2023/08/11 01:25:06;;;;;;;0.00;0.00;;;16.40;80.90;;;;;;4991247;28;20057;-71
2023/08/11 01:27:35;;;;;;;0.00;0.00;;;16.40;80.90;;;;;;4973861;28;20054;-71
2023/08/11 01:30:00;;;;;;;0.00;0.00;;;16.30;80.90;;;;;;4974133;28;20049;-71
2023/08/11 01:32:26;;;;;;;0.00;0.00;;;16.40;80.90;;;;;;4968976;28;20551;-71
2023/08/11 01:34:51;;;;;;;0.00;0.00;;;16.30;81.00;;;;;;4957543;28;20112;-71
2023/08/11 01:37:17;;;;;;;0.00;0.00;;;16.30;81.00;;;;;;4991145;28;20050;-71
2023/08/11 01:39:43;;;;;;;0.00;0.00;;;16.30;81.10;;;;;;4973429;28;20042;-71
2023/08/11 01:42:08;;;;;;;0.00;0.00;;;16.30;81.10;;;;;;4991608;28;20128;-71
2023/08/11 01:44:34;;;;;;;0.00;0.00;;;16.20;81.30;;;;;;4973176;28;20050;-71
2023/08/11 01:47:01;;;;;;;0.00;0.00;;;16.20;81.40;;;;;;4966570;28;20743;-71
2023/08/11 01:49:27;;;;;;;0.00;0.00;;;16.30;81.50;;;;;;4991333;28;20104;-71
2023/08/11 01:51:53;;;;;;;0.00;0.00;;;16.20;81.60;;;;;;4990879;28;20050;-71
2023/08/11 01:54:19;;;;;;;0.00;0.00;;;16.20;81.70;;;;;;4973181;28;20038;-71
2023/08/11 01:56:45;;;;;;;0.00;0.00;;;16.20;81.60;;;;;;4990824;28;20535;-71
2023/08/11 01:59:13;;;;;;;0.00;0.00;;;16.20;81.60;;;;;;4972390;28;20538;-71
2023/08/11 02:01:39;;;;;;;0.00;0.00;;;16.20;81.60;;;;;;4963391;28;20046;-71
2023/08/11 02:04:05;;;;;;;0.00;0.00;;;16.20;81.70;;;;;;4973063;28;20502;-71
2023/08/11 02:06:31;;;;;;;0.00;0.00;;;16.20;81.80;;;;;;4972787;28;20515;-71
2023/08/11 02:08:57;;;;;;;0.00;0.00;;;16.20;81.90;;;;;;4973104;28;20112;-71
2023/08/11 02:11:23;;;;;;;0.00;0.00;;;16.20;82.10;;;;;;4989959;28;20522;-71
2023/08/11 02:13:48;;;;;;;0.00;0.00;;;16.20;82.10;;;;;;4973248;28;20050;-71
2023/08/11 02:16:14;;;;;;;0.00;0.00;;;16.20;82.20;;;;;;4990031;28;20050;-71
2023/08/11 02:18:40;;;;;;;0.00;0.00;;;16.30;82.60;;;;;;4971999;28;20129;-71
2023/08/11 02:21:07;;;;;;;0.28;0.28;;;16.20;82.50;;;;;;4972972;28;20134;-71
2023/08/11 02:23:33;;;;;;;0.00;0.00;;;16.20;82.60;;;;;;4972345;28;20042;-71
2023/08/11 02:25:59;;;;;;;0.00;0.00;;;16.30;82.60;;;;;;4981747;28;20053;-71
2023/08/11 02:28:25;;;;;;;0.00;0.00;;;16.20;82.60;;;;;;4977530;28;20050;-71
2023/08/11 02:30:50;;;;;;;0.00;0.00;;;16.20;82.70;;;;;;4973235;28;20141;-71
2023/08/11 02:33:18;;;;;;;0.00;0.00;;;16.20;82.60;;;;;;4972504;28;20506;-70
2023/08/11 02:35:44;;;;;;;0.00;0.00;;;16.20;82.80;;;;;;4972957;28;20518;-71
2023/08/11 02:38:10;;;;;;;0.00;0.00;;;16.20;82.80;;;;;;4990089;28;20085;-71
2023/08/11 02:40:35;;;;;;;0.00;0.00;;;16.20;83.00;;;;;;4972227;28;20643;-71
2023/08/11 02:43:02;;;;;;;0.00;0.00;;;16.20;82.80;;;;;;4972242;28;20399;-71
2023/08/11 02:45:27;;;;;;;0.00;0.00;;;16.20;82.60;;;;;;4972290;28;20086;-71
2023/08/11 02:47:53;;;;;;;0.00;0.00;;;16.10;82.50;;;;;;4972816;28;20085;-71
2023/08/11 02:50:19;;;;;;;0.00;0.00;;;16.10;82.80;;;;;;4972124;28;20415;-71
2023/08/11 02:52:44;;;;;;;0.00;0.00;;;16.10;82.70;;;;;;4972635;28;20466;-71
2023/08/11 02:55:11;;;;;;;0.00;0.00;;;16.10;82.70;;;;;;4971875;28;20065;-71
2023/08/11 02:57:37;;;;;;;0.00;0.00;;;16.10;82.70;;;;;;4989706;28;20050;-71
2023/08/11 03:00:12;;;;;;;0.00;0.00;;;16.10;82.70;;;;;;4972553;28;20081;-71
2023/08/11 03:02:38;;;;;;;0.00;0.00;;;16.10;82.90;;;;;;4971743;28;20046;-71
2023/08/11 03:05:06;;;;;;;0.00;0.00;;;16.10;82.80;;;;;;4972198;28;20046;-71
2023/08/11 03:07:33;;;;;;;0.00;0.00;;;16.00;83.00;;;;;;4972019;28;20121;-71
2023/08/11 03:09:59;;;;;;;0.00;0.00;;;16.10;83.10;;;;;;4971496;28;20050;-71
2023/08/11 03:12:25;;;;;;;0.00;0.00;;;16.10;83.40;;;;;;4989476;28;20050;-71
2023/08/11 03:14:50;;;;;;;0.00;0.00;;;16.10;83.40;;;;;;4989194;28;20038;-71
2023/08/11 03:17:16;;;;;;;0.00;0.00;;;16.10;83.50;;;;;;4989346;28;20041;-71
2023/08/11 03:19:42;;;;;;;0.00;0.00;;;16.10;83.30;;;;;;4989767;28;20133;-71
2023/08/11 03:22:08;;;;;;;0.00;0.00;;;16.10;83.50;;;;;;4972138;28;20132;-71
2023/08/11 03:24:34;;;;;;;0.00;0.00;;;16.10;83.70;;;;;;4971525;28;20129;-71
2023/08/11 03:26:59;;;;;;;0.00;0.00;;;16.00;83.80;;;;;;4971510;28;20105;-71
2023/08/11 03:29:25;;;;;;;0.00;0.00;;;16.00;83.60;;;;;;4971884;28;20081;-71
2023/08/11 03:31:50;;;;;;;0.00;0.00;;;16.00;83.70;;;;;;4971308;28;20050;-71
2023/08/11 03:34:16;;;;;;;0.00;0.00;;;16.10;83.50;;;;;;4972202;28;20388;-71
2023/08/11 03:36:43;;;;;;;0.00;0.00;;;16.10;83.60;;;;;;4971641;28;20078;-71
2023/08/11 03:39:08;;;;;;;0.00;0.00;;;16.10;83.80;;;;;;4967839;28;20419;-71
2023/08/11 03:41:34;;;;;;;0.00;0.00;;;16.10;83.80;;;;;;4978434;28;20050;-71
2023/08/11 03:43:59;;;;;;;0.10;0.10;;;16.10;83.60;;;;;;4989254;28;20714;-71
2023/08/11 03:46:25;;;;;;;0.00;0.00;;;16.10;83.70;;;;;;4971297;28;20064;-71
2023/08/11 03:48:50;;;;;;;0.00;0.00;;;16.10;83.80;;;;;;4987364;28;20104;-71
2023/08/11 03:51:16;;;;;;;0.00;0.00;;;16.10;83.80;;;;;;4971346;28;20056;-71
2023/08/11 03:53:42;;;;;;;0.00;0.00;;;16.10;83.60;;;;;;4989191;28;20483;-71
2023/08/11 03:56:08;;;;;;;0.00;0.00;;;16.10;83.70;;;;;;4971809;28;20038;-71
2023/08/11 03:58:35;;;;;;;0.00;0.00;;;16.10;83.80;;;;;;4971589;28;20104;-71
2023/08/11 04:01:01;;;;;;;0.00;0.00;;;16.10;83.80;;;;;;4971527;28;20050;-71
2023/08/11 04:03:30;;;;;;;0.00;0.00;;;16.10;83.90;;;;;;4972199;28;20050;-71
2023/08/11 04:05:59;;;;;;;0.00;0.00;;;16.10;83.90;;;;;;4988462;28;20047;-71
2023/08/11 04:08:26;;;;;;;0.00;0.00;;;16.10;83.90;;;;;;4988554;28;20049;-71
2023/08/11 04:10:55;;;;;;;0.00;0.00;;;16.10;84.00;;;;;;4988504;28;20042;-71
2023/08/11 04:13:21;;;;;;;0.00;0.00;;;16.10;84.20;;;;;;4970860;28;20042;-71
2023/08/11 04:15:56;;;;;;;0.00;0.00;;;16.10;84.30;;;;;;4971789;28;20069;-71
2023/08/11 04:18:21;;;;;;;0.00;0.00;;;16.10;84.30;;;;;;4970207;28;20046;-71
2023/08/11 04:20:50;;;;;;;0.00;0.00;;;16.10;84.30;;;;;;4968176;28;20046;-71
2023/08/11 04:23:18;;;;;;;0.00;0.00;;;16.10;84.20;;;;;;4968541;28;20052;-71
2023/08/11 04:25:51;;;;;;;0.00;0.00;;;16.10;84.30;;;;;;4961171;28;20492;-71
2023/08/11 04:28:23;;;;;;;0.00;0.00;;;16.10;84.50;;;;;;4952448;28;20138;-71
2023/08/11 04:30:48;;;;;;;0.00;0.00;;;16.10;84.50;;;;;;4963019;28;20614;-71
2023/08/11 04:33:28;;;;;;;0.00;0.00;;;16.10;84.40;;;;;;4950170;28;20454;-70
2023/08/11 04:35:54;;;;;;;0.00;0.00;;;16.10;84.60;;;;;;4988334;28;20052;-71
2023/08/11 04:38:31;;;;;;;0.00;0.00;;;16.10;84.50;;;;;;4962309;28;20411;-71
2023/08/11 04:40:57;;;;;;;0.10;0.10;;;16.10;84.60;;;;;;4972636;28;20133;-71
2023/08/11 04:43:29;;;;;;;0.00;0.00;;;16.10;84.60;;;;;;4990584;28;20051;-70
2023/08/11 04:45:55;;;;;;;0.00;0.00;;;16.10;84.50;;;;;;4986008;28;20042;-71
2023/08/11 04:48:21;;;;;;;0.00;0.00;;;16.10;84.50;;;;;;4991838;28;20092;-71
2023/08/11 04:50:51;;;;;;;0.00;0.00;;;16.10;84.60;;;;;;4991468;28;20046;-71
2023/08/11 04:53:21;;;;;;;0.00;0.00;;;16.10;84.60;;;;;;4974645;28;20087;-71
2023/08/11 04:55:46;;;;;;;0.00;0.00;;;16.10;84.50;;;;;;4991726;28;20062;-71
2023/08/11 04:58:15;;;;;;;0.10;0.10;;;16.20;84.60;;;;;;4988475;28;20454;-71
2023/08/11 05:00:41;;;;;;;0.00;0.00;;;16.20;84.50;;;;;;4988856;28;20534;-71
2023/08/11 05:03:07;;;;;;;0.00;0.00;;;16.20;84.40;;;;;;4992624;28;20050;-71
2023/08/11 05:05:33;;;;;;;0.00;0.00;;;16.20;84.80;;;;;;4991090;28;20525;-71
2023/08/11 05:08:02;;;;;;;0.00;0.00;;;16.30;84.90;;;;;;4991010;28;20046;-70
2023/08/11 05:10:28;;;;;;;0.00;0.00;;;16.30;84.90;;;;;;4973198;28;20046;-71
2023/08/11 05:12:58;;;;;;;0.00;0.00;;;16.30;85.00;;;;;;4959553;28;20045;-71
2023/08/11 05:15:26;;;;;;;0.05;0.05;;;16.30;84.90;;;;;;4958321;28;20046;-71
2023/08/11 05:17:52;;;;;;;0.00;0.00;;;16.40;84.90;;;;;;4974723;28;20086;-71
2023/08/11 05:20:18;;;;;;;0.00;0.00;;;16.40;84.80;;;;;;4972291;28;20083;-71
2023/08/11 05:22:47;;;;;;;0.00;0.00;;;16.40;84.90;;;;;;4991432;28;20046;-70
2023/08/11 05:25:21;;;;;;;0.00;0.00;;;16.50;85.10;;;;;;4975639;28;20141;-70
2023/08/11 05:27:47;;;;;;;0.00;0.00;;;16.50;85.00;;;;;;4991363;28;20073;-70
2023/08/11 05:30:13;;;;;;;0.00;0.00;;;16.60;84.90;;;;;;4973933;28;20038;-70
2023/08/11 05:32:39;;;;;;;0.00;0.00;;;16.60;85.00;;;;;;4989173;28;20046;-71
2023/08/11 05:35:08;;;;;;;0.00;0.00;;;16.60;84.50;;;;;;4990913;28;20047;-70
2023/08/11 05:37:34;;;;;;;0.00;0.00;;;16.60;84.60;;;;;;4990529;28;20049;-70
2023/08/11 05:40:02;;;;;;;0.00;0.00;;;16.70;84.80;;;;;;4974175;28;20062;-70
2023/08/11 05:42:28;;;;;;;0.00;0.00;;;16.70;85.50;;;;;;4965180;28;20043;-70
2023/08/11 05:44:53;;;;;;;0.00;0.00;;;16.80;85.40;;;;;;4970214;28;20487;-70
2023/08/11 05:47:19;;;;;;;0.00;0.00;;;16.80;85.30;;;;;;4974023;28;20054;-69
2023/08/11 05:49:45;;;;;;;0.00;0.00;;;16.80;85.00;;;;;;4990305;28;20600;-72
2023/08/11 05:52:11;;;;;;;0.00;0.00;;;16.90;84.90;;;;;;4990969;28;20797;-72
2023/08/11 05:54:36;;;;;;;0.00;0.00;;;16.90;85.00;;;;;;4991427;28;20436;-72
2023/08/11 05:57:02;;;;;;;0.00;0.00;;;17.00;85.10;;;;;;4983175;28;20054;-72
2023/08/11 05:59:27;;;;;;;0.00;0.00;;;17.00;85.30;;;;;;4973834;28;20050;-73
2023/08/11 06:01:53;;;;;;;0.00;0.00;;;17.10;85.00;;;;;;4990556;28;20043;-71
2023/08/11 06:04:21;;;;;;;0.00;0.00;;;17.10;85.00;;;;;;4967823;28;20188;-72
2023/08/11 06:06:47;;;;;;;0.00;0.00;;;17.10;84.90;;;;;;4989979;28;20466;-72
2023/08/11 06:09:12;;;;;;;0.00;0.00;;;17.20;85.10;;;;;;4989696;28;20085;-72
2023/08/11 06:11:38;;;;;;;0.00;0.00;;;17.20;84.90;;;;;;4990419;28;20081;-72
2023/08/11 06:14:04;;;;;;;0.00;0.00;;;17.20;85.00;;;;;;4984796;28;20050;-69
2023/08/11 06:16:30;;;;;;;0.10;0.10;;;17.30;85.30;;;;;;4996165;22;21377;-71
2023/08/11 06:18:55;;;;;;;0.00;0.00;;;17.40;85.10;;;;;;5007760;28;20133;-70
2023/08/11 06:21:21;;;;;;;0.00;0.00;;;17.40;85.30;;;;;;4996876;28;20069;-71
2023/08/11 06:23:47;;;;;;;0.10;0.10;;;17.50;85.20;;;;;;4982396;28;20610;-71
2023/08/11 06:26:13;;;;;;;0.10;0.10;;;17.50;85.20;;;;;;4997682;28;20054;-71
2023/08/11 06:28:39;;;;;;;0.00;0.00;;;17.60;85.00;;;;;;4995386;28;20043;-70
2023/08/11 06:31:04;;;;;;;2.72;1.95;;;17.60;84.70;;;;;;4996917;28;20415;-70
2023/08/11 06:33:30;;;;;;;0.00;0.00;;;17.60;84.70;;;;;;4981425;28;20054;-72
2023/08/11 06:35:56;;;;;;;0.00;0.00;;;17.70;84.60;;;;;;4994355;28;20043;-71
2023/08/11 06:38:21;;;;;;;0.00;0.00;;;17.80;84.60;;;;;;4998953;28;20050;-72
2023/08/11 06:40:47;;;;;;;0.17;0.17;;;17.90;84.70;;;;;;4993446;28;20099;-71
2023/08/11 06:43:13;;;;;;;0.00;0.00;;;18.00;84.60;;;;;;4978726;28;20407;-71
2023/08/11 06:45:38;;;;;;;0.30;0.30;;;18.00;84.20;;;;;;4976007;28;20038;-71
2023/08/11 06:48:04;;;;;;;0.00;0.00;;;18.10;83.90;;;;;;4966121;28;20380;-71
2023/08/11 06:50:30;;;;;;;0.10;0.10;;;18.10;83.90;;;;;;4993514;28;20042;-72
2023/08/11 06:52:56;;;;;;;0.00;0.00;;;18.20;84.00;;;;;;4994237;28;20430;-71
2023/08/11 06:55:21;;;;;;;0.00;0.00;;;18.30;83.60;;;;;;4993935;28;20121;-71
2023/08/11 06:57:47;;;;;;;0.00;0.00;;;18.30;83.80;;;;;;4977935;28;20050;-71
2023/08/11 07:00:13;;;;;;;0.00;0.00;;;18.40;83.70;;;;;;4992959;28;20125;-72
2023/08/11 07:02:38;;;;;;;0.08;0.08;;;18.50;84.00;;;;;;4995495;28;20054;-72
2023/08/11 07:05:05;;;;;;;0.00;0.00;;;18.50;83.70;;;;;;4993879;28;20384;-71
2023/08/11 07:07:31;;;;;;;0.00;0.00;;;18.60;83.60;;;;;;4976726;28;20062;-70
2023/08/11 07:09:56;;;;;;;0.00;0.00;;;18.60;83.30;;;;;;4969711;28;20049;-70
2023/08/11 07:12:22;;;;;;;0.00;0.00;;;18.70;83.00;;;;;;4992358;28;20365;-70
2023/08/11 07:14:48;;;;;;;0.00;0.00;;;18.80;82.80;;;;;;4994912;28;20130;-69
2023/08/11 07:17:14;;;;;;;0.00;0.00;;;18.90;82.60;;;;;;4962832;28;20058;-70
2023/08/11 07:19:39;;;;;;;0.00;0.00;;;19.00;82.20;;;;;;4936739;28;20055;-74
2023/08/11 07:22:05;;;;;;;0.00;0.00;;;19.00;82.20;;;;;;4952639;28;20057;-73
2023/08/11 07:24:31;;;;;;;0.88;0.50;;;19.10;82.10;;;;;;4951630;28;20051;-72
2023/08/11 07:26:56;;;;;;;0.00;0.00;;;19.10;81.90;;;;;;4961149;28;20129;-72
2023/08/11 07:29:22;;;;;;;0.00;0.00;;;19.20;81.80;;;;;;4956155;28;20062;-70
2023/08/11 07:31:47;;;;;;;0.00;0.00;;;19.30;81.90;;;;;;4952148;29;20091;-70
2023/08/11 07:34:13;;;;;;;0.55;0.55;;;19.30;81.80;;;;;;4957088;28;20070;-72
2023/08/11 07:36:40;;;;;;;0.00;0.00;;;19.50;81.90;;;;;;4971356;28;20054;-72
2023/08/11 07:39:09;;;;;;;0.00;0.00;;;19.50;81.70;;;;;;4970821;28;20102;-71
2023/08/11 07:41:36;;;;;;;0.00;0.00;;;19.60;81.50;;;;;;4970752;28;20057;-70
2023/08/11 07:44:01;;;;;;;0.00;0.00;;;19.70;81.20;;;;;;4965915;28;20055;-70
2023/08/11 07:46:27;;;;;;;0.00;0.00;;;19.70;80.40;;;;;;4968897;28;20043;-71
2023/08/11 07:48:53;;;;;;;0.80;0.60;;;19.80;80.60;;;;;;4959951;28;20039;-70
2023/08/11 07:51:19;;;;;;;0.10;0.10;;;19.90;80.80;;;;;;4953122;28;20054;-70
2023/08/11 07:53:44;;;;;;;0.00;0.00;;;20.00;80.70;;;;;;4952949;28;20047;-70
2023/08/11 07:56:11;;;;;;;0.00;0.00;;;20.10;80.60;;;;;;4953863;28;20036;-70
2023/08/11 07:58:38;;;;;;;0.10;0.10;;;20.10;80.20;;;;;;4956831;28;20052;-72
2023/08/11 08:01:03;;;;;;;0.00;0.00;;;20.10;79.80;;;;;;4957501;28;20061;-72
2023/08/11 08:03:29;;;;;;;0.00;0.00;;;20.30;79.50;;;;;;4961777;28;20054;-70
2023/08/11 08:05:55;;;;;;;0.00;0.00;;;20.30;78.70;;;;;;4957006;28;20066;-72
2023/08/11 08:08:20;;;;;;;0.00;0.00;;;20.50;78.10;;;;;;4960059;28;20138;-72
2023/08/11 08:10:46;;;;;;;0.00;0.00;;;20.50;78.40;;;;;;4956377;28;20043;-71
2023/08/11 08:13:11;;;;;;;0.00;0.00;;;20.50;78.20;;;;;;4959316;28;20054;-71
2023/08/11 08:15:37;;;;;;;0.00;0.00;;;20.70;77.90;;;;;;4956012;28;20101;-71
2023/08/11 08:18:04;;;;;;;0.00;0.00;;;20.80;78.00;;;;;;4988689;28;20046;-71
2023/08/11 08:20:31;;;;;;;0.00;0.00;;;20.80;77.90;;;;;;4989674;28;20054;-73
2023/08/11 08:22:57;;;;;;;0.00;0.00;;;20.90;77.60;;;;;;4982940;28;20054;-75
2023/08/11 08:25:22;;;;;;;0.25;0.25;;;21.00;77.20;;;;;;4997058;28;20096;-71
2023/08/11 08:27:48;;;;;;;0.00;0.00;;;21.10;77.00;;;;;;4995713;28;20052;-71
2023/08/11 08:30:14;;;;;;;0.32;0.20;;;21.10;76.60;;;;;;4995787;28;20053;-71
2023/08/11 08:32:40;;;;;;;0.10;0.10;;;21.20;76.70;;;;;;4995121;28;20054;-71
2023/08/11 08:35:07;;;;;;;0.00;0.00;;;21.30;76.90;;;;;;4978232;28;20058;-71
2023/08/11 08:37:33;;;;;;;0.10;0.10;;;21.30;77.30;;;;;;4982144;28;20147;-72
2023/08/11 08:40:00;;;;;;;0.00;0.00;;;21.50;77.10;;;;;;4996172;28;20538;-71
2023/08/11 08:42:26;;;;;;;0.40;0.40;;;21.50;77.10;;;;;;4985047;28;20058;-71
2023/08/11 08:44:53;;;;;;;0.15;0.15;;;21.60;76.40;;;;;;4973829;28;20426;-71
2023/08/11 08:47:24;;;;;;;0.10;0.10;;;21.70;76.40;;;;;;4981307;28;20086;-75
2023/08/11 08:49:50;;;;;;;0.03;0.03;;;21.80;74.80;;;;;;4987792;28;20510;-71
2023/08/11 08:52:16;;;;;;;0.00;0.00;;;21.90;75.30;;;;;;4986254;28;20050;-71
2023/08/11 08:54:43;;;;;;;0.10;0.10;;;22.00;74.90;;;;;;5002659;28;20050;-72
2023/08/11 08:57:09;;;;;;;0.00;0.00;;;22.10;75.00;;;;;;4979741;28;20054;-71
2023/08/11 08:59:38;;;;;;;0.03;0.03;;;22.20;75.00;;;;;;5000452;28;20135;-73
2023/08/11 09:02:06;;;;;;;0.00;0.00;;;22.20;74.80;;;;;;4997725;28;20065;-72
2023/08/11 09:04:32;;;;;;;0.00;0.00;;;22.20;73.90;;;;;;4981870;28;20054;-72
2023/08/11 09:06:59;;;;;;;0.00;0.00;;;22.40;74.60;;;;;;4967034;28;20113;-72
2023/08/11 09:09:27;;;;;;;0.03;0.03;;;22.50;75.10;;;;;;4978324;28;20504;-72
2023/08/11 09:11:53;;;;;;;0.00;0.00;;;22.50;74.80;;;;;;4986702;28;20563;-72
2023/08/11 09:14:20;;;;;;;0.00;0.00;;;22.60;74.40;;;;;;4982222;28;20088;-72
2023/08/11 09:16:47;;;;;;;0.00;0.00;;;22.70;73.50;;;;;;4989322;28;20062;-71
2023/08/11 09:19:13;;;;;;;0.00;0.00;;;22.70;73.50;;;;;;4990071;28;20055;-72
2023/08/11 09:21:43;;;;;;;0.20;0.20;;;22.80;73.30;;;;;;4996504;28;20145;-72
2023/08/11 09:24:13;;;;;;;0.32;0.32;;;22.80;72.90;;;;;;4980467;28;20390;-71
2023/08/11 09:26:44;;;;;;;0.20;0.10;;;22.80;73.50;;;;;;4963121;28;20051;-71
2023/08/11 09:29:11;;;;;;;0.00;0.00;;;22.90;73.10;;;;;;4977606;28;20141;-72
2023/08/11 09:31:38;;;;;;;0.00;0.00;;;23.00;72.80;;;;;;4976958;28;20124;-72
2023/08/11 09:34:18;;;;;;;0.20;0.20;;;23.10;72.10;;;;;;4977897;28;20046;-73
2023/08/11 09:36:45;;;;;;;0.10;0.10;;;23.20;71.30;;;;;;4982321;28;20058;-70
2023/08/11 09:39:11;;;;;;;0.00;0.00;;;23.40;72.70;;;;;;4981098;28;20054;-70
2023/08/11 09:41:40;;;;;;;0.00;0.00;;;23.50;71.40;;;;;;4977379;28;20057;-70
2023/08/11 09:44:06;;;;;;;0.00;0.00;;;23.50;70.70;;;;;;4980062;28;20050;-71
2023/08/11 09:46:36;;;;;;;0.00;0.00;;;23.50;70.30;;;;;;4999545;28;20527;-70
2023/08/11 09:49:01;;;;;;;0.05;0.05;;;23.60;69.70;;;;;;4978049;28;20140;-70
2023/08/11 09:51:29;;;;;;;0.00;0.00;;;23.60;69.60;;;;;;4998529;28;20488;-71
2023/08/11 09:54:00;;;;;;;0.00;0.00;;;23.60;70.80;;;;;;4980517;28;20124;-70
2023/08/11 09:56:27;;;;;;;0.00;0.00;;;23.70;70.50;;;;;;4978427;28;20054;-70
2023/08/11 09:58:55;;;;;;;0.00;0.00;;;23.80;70.50;;;;;;4980170;28;20073;-70
2023/08/11 10:01:22;;;;;;;0.10;0.10;;;23.90;70.90;;;;;;5003531;28;20065;-72
2023/08/11 10:03:50;;;;;;;0.10;0.10;;;23.90;70.30;;;;;;4994880;28;20516;-71
2023/08/11 10:06:27;;;;;;;0.00;0.00;;;24.00;68.90;;;;;;5000190;28;20089;-70
2023/08/11 10:08:55;;;;;;;0.00;0.00;;;24.10;70.60;;;;;;4984322;28;20523;-70
2023/08/11 10:11:26;;;;;;;0.00;0.00;;;24.20;71.00;;;;;;4992115;28;20151;-71
2023/08/11 10:13:55;;;;;;;0.30;0.30;;;24.20;68.10;;;;;;5013626;28;20117;-76
2023/08/11 10:16:21;;;;;;;0.10;0.10;;;24.20;68.00;;;;;;4995322;28;20107;-76
2023/08/11 10:18:47;;;;;;;0.00;0.00;;;24.20;68.20;;;;;;5019192;23;20124;-72
2023/08/11 10:21:13;;;;;;;0.15;0.15;;;24.30;68.10;;;;;;5010208;28;20081;-72
2023/08/11 10:23:39;;;;;;;0.00;0.00;;;24.40;66.50;;;;;;5009678;28;20586;-72
2023/08/11 10:26:05;;;;;;;0.00;0.00;;;24.50;66.90;;;;;;5010516;28;20057;-72
2023/08/11 10:28:32;;;;;;;0.00;0.00;;;24.60;68.50;;;;;;5009686;28;20046;-71
2023/08/11 10:30:58;;;;;;;0.52;0.35;;;24.70;69.10;;;;;;5005428;28;20088;-71
2023/08/11 10:33:28;;;;;;;0.00;0.00;;;24.80;67.40;;;;;;4996801;28;20046;-71
2023/08/11 10:35:54;;;;;;;0.38;0.15;;;24.80;67.00;;;;;;4998469;28;20584;-71
2023/08/11 10:38:25;;;;;;;0.00;0.00;;;24.80;67.90;;;;;;4997994;28;20057;-70
2023/08/11 10:41:05;;;;;;;0.52;0.52;;;24.90;68.00;;;;;;5001489;28;20061;-70
2023/08/11 10:43:33;;;;;;;0.00;0.00;;;24.90;67.80;;;;;;4994874;28;20061;-70
2023/08/11 10:46:21;;;;;;;0.00;0.00;;;24.90;67.70;;;;;;4995748;28;20046;-70
2023/08/11 10:48:47;;;;;;;0.00;0.00;;;25.00;67.80;;;;;;4999432;28;20046;-70
2023/08/11 10:51:30;;;;;;;5.28;0.45;;;25.00;66.80;;;;;;4990949;28;20531;-70
2023/08/11 10:54:09;;;;;;;0.00;0.00;;;25.10;66.60;;;;;;4997156;28;20419;-71
2023/08/11 10:56:43;;;;;;;0.00;0.00;;;25.20;66.60;;;;;;4993496;28;20054;-71
2023/08/11 10:59:22;;;;;;;0.10;0.10;;;25.20;66.60;;;;;;4991514;28;20493;-71
2023/08/11 11:01:51;;;;;;;0.20;0.20;;;25.30;67.50;;;;;;4994518;28;20068;-71
2023/08/11 11:04:18;;;;;;;0.00;0.00;;;25.40;68.20;;;;;;4998854;28;20069;-71
2023/08/11 11:06:45;;;;;;;0.00;0.00;;;25.50;66.50;;;;;;4999706;28;20045;-71
2023/08/11 11:09:11;;;;;;;0.00;0.00;;;25.50;67.40;;;;;;4994831;28;20068;-71
2023/08/11 11:11:37;;;;;;;0.00;0.00;;;25.60;68.30;;;;;;4991539;28;20068;-72
2023/08/11 11:14:08;;;;;;;0.00;0.00;;;25.70;67.30;;;;;;4992024;28;20128;-70
2023/08/11 11:16:34;;;;;;;0.05;0.05;;;25.90;66.00;;;;;;4994933;28;20054;-71
2023/08/11 11:19:01;;;;;;;1.45;0.43;;;25.90;66.10;;;;;;4994074;28;21102;-71
2023/08/11 11:21:27;;;;;;;0.00;0.00;;;26.00;66.30;;;;;;4995388;28;20442;-71
2023/08/11 11:23:53;;;;;;;0.00;0.00;;;26.00;67.30;;;;;;4997090;28;20124;-71
2023/08/11 11:26:30;;;;;;;0.00;0.00;;;26.10;66.60;;;;;;4996928;28;20097;-71
2023/08/11 11:29:00;;;;;;;0.00;0.00;;;26.00;65.70;;;;;;4990461;28;20034;-71
2023/08/11 11:31:28;;;;;;;0.00;0.00;;;26.00;65.30;;;;;;4996471;28;20822;-71
2023/08/11 11:33:54;;;;;;;0.00;0.00;;;26.00;64.90;;;;;;4994849;28;20177;-72
2023/08/11 11:36:20;;;;;;;0.00;0.00;;;26.00;65.50;;;;;;4991715;28;20093;-72
2023/08/11 11:38:47;;;;;;;0.20;0.20;;;26.00;65.70;;;;;;4997167;28;20161;-71
2023/08/11 11:41:15;;;;;;;0.00;0.00;;;26.00;66.60;;;;;;4994838;28;20038;-71
2023/08/11 11:43:45;;;;;;;0.00;0.00;;;26.00;65.00;;;;;;4992956;28;20045;-71
2023/08/11 11:46:14;;;;;;;0.13;0.13;;;26.00;65.10;;;;;;4974494;28;20125;-71
2023/08/11 11:48:43;;;;;;;0.25;0.25;;;26.00;66.30;;;;;;4993580;28;20113;-71
2023/08/11 11:51:09;;;;;;;0.28;0.28;;;26.00;65.10;;;;;;5001974;28;20049;-71
2023/08/11 11:53:35;;;;;;;0.00;0.00;;;26.00;64.60;;;;;;4999539;28;20469;-72
2023/08/11 11:56:03;;;;;;;0.10;0.10;;;25.90;65.60;;;;;;4995196;28;20121;-71
2023/08/11 11:58:28;;;;;;;0.00;0.00;;;25.90;65.80;;;;;;5001922;28;20081;-71
2023/08/11 12:00:55;;;;;;;0.00;0.00;;;25.90;65.70;;;;;;5000067;28;20069;-71
2023/08/11 12:03:22;;;;;;;0.10;0.10;;;25.90;66.20;;;;;;4997061;28;20096;-71
2023/08/11 12:05:47;;;;;;;0.00;0.00;;;25.90;65.90;;;;;;4996972;28;20046;-71
2023/08/11 12:08:23;;;;;;;0.00;0.00;;;25.90;66.10;;;;;;5005366;28;20042;-71
2023/08/11 12:10:49;;;;;;;0.10;0.10;;;25.80;65.50;;;;;;4995128;28;20173;-71
2023/08/11 12:13:16;;;;;;;0.00;0.00;;;25.90;65.90;;;;;;4997675;28;20467;-71
2023/08/11 12:15:41;;;;;;;0.00;0.00;;;25.90;65.30;;;;;;5000735;28;20050;-71
2023/08/11 12:18:08;;;;;;;0.43;0.43;;;26.00;65.90;;;;;;5003757;28;20056;-71
2023/08/11 12:20:36;;;;;;;2.28;1.17;;;26.00;65.70;;;;;;5012867;28;20045;-71
2023/08/11 12:23:02;;;;;;;0.05;0.05;;;26.00;65.70;;;;;;5011958;28;20042;-72
2023/08/11 12:25:27;;;;;;;0.00;0.00;;;26.00;65.50;;;;;;5011773;28;20061;-71
2023/08/11 12:27:53;;;;;;;0.10;0.10;;;26.00;65.50;;;;;;5012486;28;20053;-71
2023/08/11 12:30:19;;;;;;;0.00;0.00;;;25.90;64.60;;;;;;5008677;28;20562;-71
2023/08/11 12:32:45;;;;;;;0.00;0.00;;;25.80;64.80;;;;;;5002677;28;20046;-70
2023/08/11 12:35:11;;;;;;;0.05;0.05;;;25.80;65.60;;;;;;5011125;28;20049;-71
2023/08/11 12:37:37;;;;;;;0.30;0.30;;;25.90;65.10;;;;;;5012034;28;20494;-71
2023/08/11 12:40:03;;;;;;;0.00;0.00;;;25.90;65.20;;;;;;5011433;28;20053;-72
2023/08/11 12:42:29;;;;;;;0.00;0.00;;;26.00;65.80;;;;;;5011809;28;20072;-71
2023/08/11 12:44:55;;;;;;;0.10;0.10;;;26.00;65.60;;;;;;5012305;28;20506;-70
2023/08/11 12:47:21;;;;;;;0.00;0.00;;;26.00;65.10;;;;;;5012222;28;20037;-71